Strathmore, New Jersey
Current Conditions -  °F | °C
As of 9:55 PM on Friday 19 Dec 2014 (Local Time) from KLDJ Reporting Station
Overcast Overcast  
Wind Chill: 30°   Ceiling: 2900
Heat Index: 36°   Visibility: 10mi
Dew Point: 25°   Wind: 7mph
Humidity: 64%   Direction: 360°N
Pressure: 30.2"   Gusts: 16mph
Location:  40.4118°N, 74.2499°W
Report Text: KLDJ 200255Z AUTO 36006G14KT 10SM OVC029 02/M04 A3020 RMK AO2 T00221040
Loading
Personal Weather Stations






























Interactive Weather Map New forecast layout! Learn more

10-Day Weather Forecast

Advertisements
Track Severe Weather on mobile